Aviation Digital Data Service (ADDS)

Output produced by TAFs form (0154 UTC 22 June 2018)
found at http://www.aviationweather.gov/adds/tafs/
 
METAR text: RJCN 220100Z 09006KT 050V110 9999 FEW025 SCT035 BKN060 20/15 Q0997
Conditions at: RJCN (NAKASHIBETSU ARP, JP) observed 0100 UTC 22 June 2018
Temperature: 20.0°C (68°F)
Dewpoint: 15.0°C (59°F) [RH = 73%]
Pressure (altimeter): 29.44 inches Hg (997.0 mb)
Winds: from the E (90 degrees) at 7 MPH (6 knots; 3.1 m/s)
Visibility: 6 or more miles (10+ km)
Ceiling: 6000 feet AGL
Clouds: few clouds at 2500 feet AGL
scattered clouds at 3500 feet AGL
broken clouds at 6000 feet AGL
Weather: no significant weather observed at this time